sensor_id;sensor_type;location;lat;lon;timestamp;P1;durP1;ratioP1;P2;durP2;ratioP2
17866;SDS011;9059;49.934;8.650;2023-11-21T00:03:57;4.38;;;0.93;;
17866;SDS011;9059;49.934;8.650;2023-11-21T00:14:00;0.98;;;0.40;;
17866;SDS011;9059;49.934;8.650;2023-11-21T00:24:04;4.18;;;0.70;;
17866;SDS011;9059;49.934;8.650;2023-11-21T00:34:08;2.75;;;0.90;;
17866;SDS011;9059;49.934;8.650;2023-11-21T00:44:13;2.15;;;0.90;;
17866;SDS011;9059;49.934;8.650;2023-11-21T00:54:15;2.22;;;0.80;;
17866;SDS011;9059;49.934;8.650;2023-11-21T01:04:20;2.35;;;0.73;;
17866;SDS011;9059;49.934;8.650;2023-11-21T01:14:23;2.33;;;0.88;;
17866;SDS011;9059;49.934;8.650;2023-11-21T01:24:29;3.78;;;1.23;;
17866;SDS011;9059;49.934;8.650;2023-11-21T01:34:31;4.10;;;1.23;;
17866;SDS011;9059;49.934;8.650;2023-11-21T01:44:36;1.85;;;0.90;;
17866;SDS011;9059;49.934;8.650;2023-11-21T01:54:39;2.90;;;1.20;;
17866;SDS011;9059;49.934;8.650;2023-11-21T02:04:43;2.33;;;1.23;;
17866;SDS011;9059;49.934;8.650;2023-11-21T02:14:46;2.78;;;1.25;;
17866;SDS011;9059;49.934;8.650;2023-11-21T02:24:51;2.95;;;1.30;;
17866;SDS011;9059;49.934;8.650;2023-11-21T02:34:55;2.65;;;1.08;;
17866;SDS011;9059;49.934;8.650;2023-11-21T02:45:04;3.08;;;0.90;;
17866;SDS011;9059;49.934;8.650;2023-11-21T02:55:08;3.03;;;0.90;;
17866;SDS011;9059;49.934;8.650;2023-11-21T03:05:12;3.72;;;0.95;;
17866;SDS011;9059;49.934;8.650;2023-11-21T03:15:15;3.65;;;1.40;;
17866;SDS011;9059;49.934;8.650;2023-11-21T03:25:20;5.15;;;1.60;;
17866;SDS011;9059;49.934;8.650;2023-11-21T03:35:25;11.13;;;1.75;;
17866;SDS011;9059;49.934;8.650;2023-11-21T03:45:30;3.15;;;1.50;;
17866;SDS011;9059;49.934;8.650;2023-11-21T03:55:36;2.78;;;1.50;;
17866;SDS011;9059;49.934;8.650;2023-11-21T04:05:40;3.97;;;1.35;;
17866;SDS011;9059;49.934;8.650;2023-11-21T04:15:43;3.95;;;1.52;;
17866;SDS011;9059;49.934;8.650;2023-11-21T04:25:47;7.93;;;2.15;;
17866;SDS011;9059;49.934;8.650;2023-11-21T04:35:50;3.75;;;1.73;;
17866;SDS011;9059;49.934;8.650;2023-11-21T04:45:55;5.20;;;1.65;;
17866;SDS011;9059;49.934;8.650;2023-11-21T04:55:58;3.40;;;1.58;;
17866;SDS011;9059;49.934;8.650;2023-11-21T05:06:03;1.45;;;0.85;;
17866;SDS011;9059;49.934;8.650;2023-11-21T05:16:06;0.77;;;0.50;;
17866;SDS011;9059;49.934;8.650;2023-11-21T05:26:12;1.05;;;0.50;;
17866;SDS011;9059;49.934;8.650;2023-11-21T05:36:15;3.25;;;0.43;;
17866;SDS011;9059;49.934;8.650;2023-11-21T05:46:19;0.35;;;0.30;;
17866;SDS011;9059;49.934;8.650;2023-11-21T05:56:23;0.17;;;0.17;;
17866;SDS011;9059;49.934;8.650;2023-11-21T06:06:27;0.60;;;0.20;;
17866;SDS011;9059;49.934;8.650;2023-11-21T06:16:30;1.67;;;0.30;;
17866;SDS011;9059;49.934;8.650;2023-11-21T06:26:34;2.33;;;0.45;;
17866;SDS011;9059;49.934;8.650;2023-11-21T06:36:37;1.30;;;0.60;;
17866;SDS011;9059;49.934;8.650;2023-11-21T06:46:41;4.03;;;0.65;;
17866;SDS011;9059;49.934;8.650;2023-11-21T06:56:44;3.35;;;0.80;;
17866;SDS011;9059;49.934;8.650;2023-11-21T07:06:48;6.60;;;1.38;;
17866;SDS011;9059;49.934;8.650;2023-11-21T07:16:51;2.90;;;1.15;;
17866;SDS011;9059;49.934;8.650;2023-11-21T07:26:56;4.38;;;1.80;;
17866;SDS011;9059;49.934;8.650;2023-11-21T07:37:00;4.43;;;1.88;;
17866;SDS011;9059;49.934;8.650;2023-11-21T07:47:04;7.00;;;3.38;;
17866;SDS011;9059;49.934;8.650;2023-11-21T07:57:08;6.15;;;3.03;;
17866;SDS011;9059;49.934;8.650;2023-11-21T08:07:14;11.15;;;3.33;;
17866;SDS011;9059;49.934;8.650;2023-11-21T08:17:18;7.05;;;2.97;;
17866;SDS011;9059;49.934;8.650;2023-11-21T08:27:23;2.72;;;1.50;;
17866;SDS011;9059;49.934;8.650;2023-11-21T08:37:26;3.85;;;1.90;;
17866;SDS011;9059;49.934;8.650;2023-11-21T08:47:33;6.45;;;1.92;;
17866;SDS011;9059;49.934;8.650;2023-11-21T08:57:36;2.35;;;1.10;;
17866;SDS011;9059;49.934;8.650;2023-11-21T09:07:41;3.65;;;1.40;;
17866;SDS011;9059;49.934;8.650;2023-11-21T09:17:44;5.27;;;2.20;;
17866;SDS011;9059;49.934;8.650;2023-11-21T09:27:49;5.72;;;2.22;;
17866;SDS011;9059;49.934;8.650;2023-11-21T09:37:52;4.32;;;1.95;;
17866;SDS011;9059;49.934;8.650;2023-11-21T09:47:56;6.25;;;2.53;;
17866;SDS011;9059;49.934;8.650;2023-11-21T09:57:59;5.55;;;2.55;;
17866;SDS011;9059;49.934;8.650;2023-11-21T10:08:06;7.15;;;2.72;;
17866;SDS011;9059;49.934;8.650;2023-11-21T10:18:11;6.10;;;2.40;;
17866;SDS011;9059;49.934;8.650;2023-11-21T10:28:17;6.05;;;2.22;;
17866;SDS011;9059;49.934;8.650;2023-11-21T10:38:22;4.60;;;1.90;;
17866;SDS011;9059;49.934;8.650;2023-11-21T10:48:28;8.27;;;1.88;;
17866;SDS011;9059;49.934;8.650;2023-11-21T10:58:31;8.90;;;1.95;;
17866;SDS011;9059;49.934;8.650;2023-11-21T11:08:36;5.35;;;1.20;;
17866;SDS011;9059;49.934;8.650;2023-11-21T11:18:39;3.80;;;1.65;;
17866;SDS011;9059;49.934;8.650;2023-11-21T11:28:44;6.57;;;2.33;;
17866;SDS011;9059;49.934;8.650;2023-11-21T11:38:50;4.15;;;1.60;;
17866;SDS011;9059;49.934;8.650;2023-11-21T11:49:03;4.70;;;1.48;;
17866;SDS011;9059;49.934;8.650;2023-11-21T11:59:06;9.40;;;2.08;;
17866;SDS011;9059;49.934;8.650;2023-11-21T12:09:13;8.27;;;2.03;;
17866;SDS011;9059;49.934;8.650;2023-11-21T12:19:20;3.97;;;1.40;;
17866;SDS011;9059;49.934;8.650;2023-11-21T12:29:25;5.43;;;1.75;;
17866;SDS011;9059;49.934;8.650;2023-11-21T12:39:31;5.13;;;1.27;;
17866;SDS011;9059;49.934;8.650;2023-11-21T12:49:35;5.28;;;1.42;;
17866;SDS011;9059;49.934;8.650;2023-11-21T12:59:38;4.85;;;1.55;;
17866;SDS011;9059;49.934;8.650;2023-11-21T13:09:45;5.10;;;1.85;;
17866;SDS011;9059;49.934;8.650;2023-11-21T13:19:48;7.25;;;2.08;;
17866;SDS011;9059;49.934;8.650;2023-11-21T13:29:53;3.65;;;2.08;;
17866;SDS011;9059;49.934;8.650;2023-11-21T13:39:55;4.97;;;1.77;;
17866;SDS011;9059;49.934;8.650;2023-11-21T13:50:00;5.43;;;2.22;;
17866;SDS011;9059;49.934;8.650;2023-11-21T14:00:05;3.15;;;1.52;;
17866;SDS011;9059;49.934;8.650;2023-11-21T14:10:13;3.90;;;1.33;;
17866;SDS011;9059;49.934;8.650;2023-11-21T14:20:17;5.25;;;1.83;;
17866;SDS011;9059;49.934;8.650;2023-11-21T14:30:23;3.95;;;1.80;;
17866;SDS011;9059;49.934;8.650;2023-11-21T14:40:27;4.13;;;1.73;;
17866;SDS011;9059;49.934;8.650;2023-11-21T14:50:35;8.82;;;1.70;;
17866;SDS011;9059;49.934;8.650;2023-11-21T15:01:07;3.63;;;1.50;;
17866;SDS011;9059;49.934;8.650;2023-11-21T15:11:13;5.15;;;1.42;;
17866;SDS011;9059;49.934;8.650;2023-11-21T15:21:17;3.55;;;1.48;;
17866;SDS011;9059;49.934;8.650;2023-11-21T15:31:24;3.33;;;1.73;;
17866;SDS011;9059;49.934;8.650;2023-11-21T15:41:27;3.55;;;1.33;;
17866;SDS011;9059;49.934;8.650;2023-11-21T15:51:31;5.65;;;1.38;;
17866;SDS011;9059;49.934;8.650;2023-11-21T16:01:36;2.40;;;1.10;;
17866;SDS011;9059;49.934;8.650;2023-11-21T16:11:45;2.63;;;1.40;;
17866;SDS011;9059;49.934;8.650;2023-11-21T16:21:48;3.45;;;1.60;;
17866;SDS011;9059;49.934;8.650;2023-11-21T16:31:52;7.07;;;1.88;;
17866;SDS011;9059;49.934;8.650;2023-11-21T16:41:56;3.00;;;1.55;;
17866;SDS011;9059;49.934;8.650;2023-11-21T16:52:01;4.72;;;1.77;;
17866;SDS011;9059;49.934;8.650;2023-11-21T17:02:04;11.32;;;2.58;;
17866;SDS011;9059;49.934;8.650;2023-11-21T17:12:08;4.60;;;1.85;;
17866;SDS011;9059;49.934;8.650;2023-11-21T17:22:11;6.30;;;2.25;;
17866;SDS011;9059;49.934;8.650;2023-11-21T17:32:15;5.43;;;2.35;;
17866;SDS011;9059;49.934;8.650;2023-11-21T17:42:20;6.18;;;2.33;;
17866;SDS011;9059;49.934;8.650;2023-11-21T17:52:24;7.72;;;2.80;;
17866;SDS011;9059;49.934;8.650;2023-11-21T18:02:27;7.63;;;2.72;;
17866;SDS011;9059;49.934;8.650;2023-11-21T18:12:37;7.88;;;3.30;;
17866;SDS011;9059;49.934;8.650;2023-11-21T18:22:39;6.45;;;2.92;;
17866;SDS011;9059;49.934;8.650;2023-11-21T18:32:44;6.88;;;3.00;;
17866;SDS011;9059;49.934;8.650;2023-11-21T18:42:47;9.60;;;2.85;;
17866;SDS011;9059;49.934;8.650;2023-11-21T18:52:51;6.90;;;2.75;;
17866;SDS011;9059;49.934;8.650;2023-11-21T19:02:56;9.52;;;2.10;;
17866;SDS011;9059;49.934;8.650;2023-11-21T19:13:01;5.53;;;2.10;;
17866;SDS011;9059;49.934;8.650;2023-11-21T19:23:04;2.08;;;1.20;;
17866;SDS011;9059;49.934;8.650;2023-11-21T19:33:09;3.33;;;1.30;;
17866;SDS011;9059;49.934;8.650;2023-11-21T19:43:13;5.75;;;2.00;;
17866;SDS011;9059;49.934;8.650;2023-11-21T19:53:17;3.75;;;1.80;;
17866;SDS011;9059;49.934;8.650;2023-11-21T20:03:20;4.55;;;2.17;;
17866;SDS011;9059;49.934;8.650;2023-11-21T20:13:25;5.90;;;2.22;;
17866;SDS011;9059;49.934;8.650;2023-11-21T20:23:27;7.87;;;1.83;;
17866;SDS011;9059;49.934;8.650;2023-11-21T20:33:34;6.33;;;1.97;;
17866;SDS011;9059;49.934;8.650;2023-11-21T20:43:38;4.93;;;2.20;;
17866;SDS011;9059;49.934;8.650;2023-11-21T20:53:42;3.50;;;1.70;;
17866;SDS011;9059;49.934;8.650;2023-11-21T21:03:47;3.92;;;2.15;;
17866;SDS011;9059;49.934;8.650;2023-11-21T21:13:52;5.80;;;2.30;;
17866;SDS011;9059;49.934;8.650;2023-11-21T21:23:55;9.50;;;2.30;;
17866;SDS011;9059;49.934;8.650;2023-11-21T21:34:00;2.03;;;1.20;;
17866;SDS011;9059;49.934;8.650;2023-11-21T21:44:03;2.27;;;1.03;;
17866;SDS011;9059;49.934;8.650;2023-11-21T21:54:08;2.60;;;1.20;;
17866;SDS011;9059;49.934;8.650;2023-11-21T22:04:11;4.07;;;1.40;;
17866;SDS011;9059;49.934;8.650;2023-11-21T22:14:16;2.07;;;1.13;;
17866;SDS011;9059;49.934;8.650;2023-11-21T22:24:19;1.90;;;0.97;;
17866;SDS011;9059;49.934;8.650;2023-11-21T22:34:23;3.67;;;1.37;;
17866;SDS011;9059;49.934;8.650;2023-11-21T22:44:26;2.87;;;1.20;;
17866;SDS011;9059;49.934;8.650;2023-11-21T22:54:31;2.53;;;0.97;;
17866;SDS011;9059;49.934;8.650;2023-11-21T23:04:34;3.20;;;1.00;;
17866;SDS011;9059;49.934;8.650;2023-11-21T23:14:38;5.13;;;1.00;;
17866;SDS011;9059;49.934;8.650;2023-11-21T23:24:41;2.50;;;1.20;;
17866;SDS011;9059;49.934;8.650;2023-11-21T23:34:45;1.30;;;0.60;;
17866;SDS011;9059;49.934;8.650;2023-11-21T23:44:48;1.63;;;1.00;;
17866;SDS011;9059;49.934;8.650;2023-11-21T23:54:53;1.07;;;0.53;;
